METAR Reports for Delaware

 

KDOV - Dover Afb, Delaware, USA
Distance from station: ENE 107mi, 172km
Updated: Sat, 22-Jul-2017 6:58pm EDT
NOT Current
Clear
Clear
 Wind from WSW
Wind: WSW 8 mph , 13 km/h
Temperature: 82°F , 28°C
Heat Index: 91°F , 33°C
Dew Point: 79°F , 26°C
Humidity: 89%
Barometer: 29.75 inHg , 1007.5 hPa
Clouds: Clear
Visibility: 10 miles , 16 km
2017/07/22 22:58 KDOV 222258Z 25007KT 10SM CLR 28/26 A2975 RMK AO2A SLP077 T02830256 $
KGED - Georgetown, Delaware, USA
Distance from station: E 111mi, 179km
Updated: Sat, 22-Jul-2017 9:54pm EDT
Few Clouds
Few Clouds
 Wind from SSW
Wind: SSW 15 mph , 24 km/h
Temperature: 77°F , 25°C
Dew Point: 73°F , 23°C
Humidity: 89%
Barometer: 29.84 inHg , 1010.5 hPa
Clouds: Few Clouds
Visibility: 10 miles , 16 km
Cloud details: Few Clouds 11000 ft
2017/07/23 01:54 KGED 230154Z AUTO 21013KT 10SM FEW110 25/23 A2984 RMK AO2 LTG DSNT SW RAE26 PRESRR SLP103 P0001 T02500228
KILG - Wilmington, Delaware, USA
Distance from station: ENE 114mi, 183km
Updated: Sat, 22-Jul-2017 9:51pm EDT
Clear
Clear
 Wind from WSW
Wind: WSW 10 mph , 17 km/h
Temperature: 79°F , 26°C
Dew Point: 72°F , 22°C
Humidity: 79%
Barometer: 29.78 inHg , 1008.5 hPa
Clouds: Clear
Visibility: 10 miles , 16 km
2017/07/23 01:51 KILG 230151Z 24009KT 10SM CLR 26/22 A2978 RMK AO2 SLP083 T02610217